sensor_id;sensor_type;location;lat;lon;timestamp;pressure;altitude;pressure_sealevel;temperature;humidity
49044;BME280;34860;48.066;14.124;2023-12-07T00:01:59;96771.31;;;1.21;78.33
49044;BME280;34860;48.066;14.124;2023-12-07T00:04:47;96765.84;;;1.21;78.29
49044;BME280;34860;48.066;14.124;2023-12-07T00:07:38;96772.84;;;1.18;78.38
49044;BME280;34860;48.066;14.124;2023-12-07T00:10:26;96759.16;;;1.18;78.47
49044;BME280;34860;48.066;14.124;2023-12-07T00:13:15;96756.84;;;1.20;78.46
49044;BME280;34860;48.066;14.124;2023-12-07T00:16:05;96757.63;;;1.21;78.34
49044;BME280;34860;48.066;14.124;2023-12-07T00:18:57;96757.22;;;1.19;78.58
49044;BME280;34860;48.066;14.124;2023-12-07T00:21:45;96758.81;;;1.20;78.39
49044;BME280;34860;48.066;14.124;2023-12-07T00:24:33;96765.06;;;1.20;78.37
49044;BME280;34860;48.066;14.124;2023-12-07T00:27:21;96763.47;;;1.19;78.28
49044;BME280;34860;48.066;14.124;2023-12-07T00:30:12;96764.69;;;1.22;78.36
49044;BME280;34860;48.066;14.124;2023-12-07T00:33:00;96770.13;;;1.18;78.37
49044;BME280;34860;48.066;14.124;2023-12-07T00:35:50;96770.13;;;1.18;78.46
49044;BME280;34860;48.066;14.124;2023-12-07T00:38:41;96764.66;;;1.18;78.49
49044;BME280;34860;48.066;14.124;2023-12-07T00:41:29;96770.53;;;1.20;78.35
49044;BME280;34860;48.066;14.124;2023-12-07T00:44:23;96776.38;;;1.19;78.45
49044;BME280;34860;48.066;14.124;2023-12-07T00:47:13;96777.16;;;1.19;78.53
49044;BME280;34860;48.066;14.124;2023-12-07T00:50:05;96773.25;;;1.20;78.45
49044;BME280;34860;48.066;14.124;2023-12-07T00:52:54;96779.50;;;1.21;78.51
49044;BME280;34860;48.066;14.124;2023-12-07T00:55:42;96785.38;;;1.19;78.57
49044;BME280;34860;48.066;14.124;2023-12-07T00:58:30;96788.47;;;1.18;78.58
49044;BME280;34860;48.066;14.124;2023-12-07T01:01:19;96787.31;;;1.19;78.53
49044;BME280;34860;48.066;14.124;2023-12-07T01:04:08;96786.16;;;1.20;78.52
49044;BME280;34860;48.066;14.124;2023-12-07T01:06:57;96792.78;;;1.19;78.64
49044;BME280;34860;48.066;14.124;2023-12-07T01:09:45;96797.50;;;1.18;78.58
49044;BME280;34860;48.066;14.124;2023-12-07T01:12:34;96793.53;;;1.16;78.53
49044;BME280;34860;48.066;14.124;2023-12-07T01:15:23;96797.88;;;1.17;78.59
49044;BME280;34860;48.066;14.124;2023-12-07T01:18:11;96803.72;;;1.15;78.67
49044;BME280;34860;48.066;14.124;2023-12-07T01:21:04;96800.97;;;1.15;78.66
49044;BME280;34860;48.066;14.124;2023-12-07T01:23:57;96801.34;;;1.14;78.59
49044;BME280;34860;48.066;14.124;2023-12-07T01:26:48;96807.22;;;1.16;78.63
49044;BME280;34860;48.066;14.124;2023-12-07T01:29:36;96808.81;;;1.17;78.57
49044;BME280;34860;48.066;14.124;2023-12-07T01:32:24;96805.22;;;1.13;78.80
49044;BME280;34860;48.066;14.124;2023-12-07T01:35:12;96803.63;;;1.12;78.71
49044;BME280;34860;48.066;14.124;2023-12-07T01:38:05;96808.34;;;1.11;78.74
49044;BME280;34860;48.066;14.124;2023-12-07T01:40:56;96803.63;;;1.12;78.57
49044;BME280;34860;48.066;14.124;2023-12-07T01:43:45;96802.84;;;1.11;78.53
49044;BME280;34860;48.066;14.124;2023-12-07T01:46:36;96812.22;;;1.10;78.63
49044;BME280;34860;48.066;14.124;2023-12-07T01:49:27;96811.44;;;1.09;78.63
49044;BME280;34860;48.066;14.124;2023-12-07T01:52:17;96817.28;;;1.08;78.69
49044;BME280;34860;48.066;14.124;2023-12-07T01:55:07;96821.19;;;1.07;78.67
49044;BME280;34860;48.066;14.124;2023-12-07T01:58:00;96825.13;;;1.09;78.67
49044;BME280;34860;48.066;14.124;2023-12-07T02:01:00;96825.88;;;1.06;78.76
49044;BME280;34860;48.066;14.124;2023-12-07T02:03:49;96817.66;;;1.06;78.76
49044;BME280;34860;48.066;14.124;2023-12-07T02:06:39;96819.19;;;1.04;78.82
49044;BME280;34860;48.066;14.124;2023-12-07T02:09:27;96816.03;;;1.02;78.72
49044;BME280;34860;48.066;14.124;2023-12-07T02:12:17;96816.41;;;1.00;78.74
49044;BME280;34860;48.066;14.124;2023-12-07T02:15:06;96818.34;;;1.00;78.85
49044;BME280;34860;48.066;14.124;2023-12-07T02:18:01;96826.16;;;0.98;78.92
49044;BME280;34860;48.066;14.124;2023-12-07T02:20:57;96828.16;;;1.01;78.88
49044;BME280;34860;48.066;14.124;2023-12-07T02:23:51;96821.47;;;0.98;78.89
49044;BME280;34860;48.066;14.124;2023-12-07T02:26:52;96821.81;;;0.97;78.72
49044;BME280;34860;48.066;14.124;2023-12-07T02:29:40;96833.91;;;0.96;78.91
49044;BME280;34860;48.066;14.124;2023-12-07T02:32:28;96834.28;;;0.94;79.01
49044;BME280;34860;48.066;14.124;2023-12-07T02:35:16;96833.13;;;0.95;78.96
49044;BME280;34860;48.066;14.124;2023-12-07T02:38:05;96835.50;;;0.97;78.85
49044;BME280;34860;48.066;14.124;2023-12-07T02:40:56;96841.75;;;0.97;78.84
49044;BME280;34860;48.066;14.124;2023-12-07T02:43:46;96841.03;;;1.00;78.84
49044;BME280;34860;48.066;14.124;2023-12-07T02:46:36;96843.75;;;1.00;78.70
49044;BME280;34860;48.066;14.124;2023-12-07T02:49:25;96846.13;;;1.02;78.97
49044;BME280;34860;48.066;14.124;2023-12-07T02:52:16;96846.94;;;1.02;78.68
49044;BME280;34860;48.066;14.124;2023-12-07T02:55:05;96855.56;;;1.04;78.65
49044;BME280;34860;48.066;14.124;2023-12-07T02:57:53;96853.59;;;1.05;78.75
49044;BME280;34860;48.066;14.124;2023-12-07T03:00:42;96856.72;;;1.03;78.65
49044;BME280;34860;48.066;14.124;2023-12-07T03:03:31;96859.44;;;1.03;78.74
49044;BME280;34860;48.066;14.124;2023-12-07T03:06:20;96871.56;;;1.02;78.87
49044;BME280;34860;48.066;14.124;2023-12-07T03:09:08;96871.13;;;1.00;78.91
49044;BME280;34860;48.066;14.124;2023-12-07T03:11:56;96863.72;;;1.01;78.96
49044;BME280;34860;48.066;14.124;2023-12-07T03:14:44;96873.50;;;1.02;78.88
49044;BME280;34860;48.066;14.124;2023-12-07T03:17:34;96876.22;;;1.02;78.77
49044;BME280;34860;48.066;14.124;2023-12-07T03:20:26;96878.56;;;1.00;78.90
49044;BME280;34860;48.066;14.124;2023-12-07T03:23:15;96884.03;;;1.00;78.78
49044;BME280;34860;48.066;14.124;2023-12-07T03:26:04;96873.50;;;1.02;78.80
49044;BME280;34860;48.066;14.124;2023-12-07T03:28:52;96885.66;;;1.04;78.73
49044;BME280;34860;48.066;14.124;2023-12-07T03:31:40;96884.88;;;1.04;78.75
49044;BME280;34860;48.066;14.124;2023-12-07T03:34:30;96881.34;;;1.03;78.80
49044;BME280;34860;48.066;14.124;2023-12-07T03:37:18;96889.19;;;1.05;78.86
49044;BME280;34860;48.066;14.124;2023-12-07T03:40:11;96893.50;;;1.06;78.68
49044;BME280;34860;48.066;14.124;2023-12-07T03:42:59;96906.41;;;1.05;78.66
49044;BME280;34860;48.066;14.124;2023-12-07T03:45:51;96906.41;;;1.05;78.63
49044;BME280;34860;48.066;14.124;2023-12-07T03:48:39;96908.78;;;1.07;78.78
49044;BME280;34860;48.066;14.124;2023-12-07T03:51:28;96907.19;;;1.06;78.77
49044;BME280;34860;48.066;14.124;2023-12-07T03:54:16;96911.06;;;1.05;78.83
49044;BME280;34860;48.066;14.124;2023-12-07T03:57:05;96908.38;;;1.08;78.75
49044;BME280;34860;48.066;14.124;2023-12-07T03:59:53;96917.03;;;1.11;78.67
49044;BME280;34860;48.066;14.124;2023-12-07T04:02:41;96922.91;;;1.13;78.71
49044;BME280;34860;48.066;14.124;2023-12-07T04:05:37;96922.91;;;1.13;78.80
49044;BME280;34860;48.066;14.124;2023-12-07T04:08:27;96917.44;;;1.13;78.63
49044;BME280;34860;48.066;14.124;2023-12-07T04:11:18;96919.78;;;1.11;78.57
49044;BME280;34860;48.066;14.124;2023-12-07T04:14:06;96924.03;;;1.08;78.75
49044;BME280;34860;48.066;14.124;2023-12-07T04:17:00;96927.53;;;1.08;78.81
49044;BME280;34860;48.066;14.124;2023-12-07T04:19:48;96931.88;;;1.09;78.75
49044;BME280;34860;48.066;14.124;2023-12-07T04:22:44;96931.88;;;1.09;78.85
49044;BME280;34860;48.066;14.124;2023-12-07T04:25:37;96941.22;;;1.08;78.75
49044;BME280;34860;48.066;14.124;2023-12-07T04:28:27;96940.09;;;1.09;78.81
49044;BME280;34860;48.066;14.124;2023-12-07T04:31:15;96938.88;;;1.07;78.87
49044;BME280;34860;48.066;14.124;2023-12-07T04:34:03;96940.03;;;1.06;78.72
49044;BME280;34860;48.066;14.124;2023-12-07T04:36:51;96935.34;;;1.06;78.74
49044;BME280;34860;48.066;14.124;2023-12-07T04:39:44;96942.03;;;1.09;78.75
49044;BME280;34860;48.066;14.124;2023-12-07T04:42:34;96948.28;;;1.09;78.71
49044;BME280;34860;48.066;14.124;2023-12-07T04:45:22;96948.28;;;1.09;78.79
49044;BME280;34860;48.066;14.124;2023-12-07T04:48:10;96952.63;;;1.11;78.64
49044;BME280;34860;48.066;14.124;2023-12-07T04:50:58;96958.50;;;1.13;78.63
49044;BME280;34860;48.066;14.124;2023-12-07T04:53:48;96961.25;;;1.13;78.75
49044;BME280;34860;48.066;14.124;2023-12-07T04:56:36;96965.94;;;1.12;78.63
49044;BME280;34860;48.066;14.124;2023-12-07T04:59:25;96960.84;;;1.11;78.74
49044;BME280;34860;48.066;14.124;2023-12-07T05:02:13;96963.19;;;1.12;78.81
49044;BME280;34860;48.066;14.124;2023-12-07T05:05:03;96968.31;;;1.14;78.75
49044;BME280;34860;48.066;14.124;2023-12-07T05:07:51;96961.66;;;1.15;78.72
49044;BME280;34860;48.066;14.124;2023-12-07T05:10:39;96971.41;;;1.12;78.77
49044;BME280;34860;48.066;14.124;2023-12-07T05:13:27;96973.34;;;1.12;78.67
49044;BME280;34860;48.066;14.124;2023-12-07T05:16:17;96968.69;;;1.12;78.78
49044;BME280;34860;48.066;14.124;2023-12-07T05:19:11;96974.56;;;1.14;78.73
49044;BME280;34860;48.066;14.124;2023-12-07T05:21:59;96983.56;;;1.15;78.68
49044;BME280;34860;48.066;14.124;2023-12-07T05:24:47;96982.00;;;1.14;78.76
49044;BME280;34860;48.066;14.124;2023-12-07T05:27:35;96982.72;;;1.11;78.83
49044;BME280;34860;48.066;14.124;2023-12-07T05:30:23;96983.81;;;1.06;78.88
49044;BME280;34860;48.066;14.124;2023-12-07T05:33:14;96982.69;;;1.07;78.92
49044;BME280;34860;48.066;14.124;2023-12-07T05:36:04;96991.66;;;1.07;78.90
49044;BME280;34860;48.066;14.124;2023-12-07T05:38:52;96986.97;;;1.08;78.82
49044;BME280;34860;48.066;14.124;2023-12-07T05:41:40;96995.19;;;1.08;78.84
49044;BME280;34860;48.066;14.124;2023-12-07T05:44:29;96990.88;;;1.07;78.73
49044;BME280;34860;48.066;14.124;2023-12-07T05:47:18;96988.16;;;1.07;78.70
49044;BME280;34860;48.066;14.124;2023-12-07T05:50:09;96992.81;;;1.06;79.04
49044;BME280;34860;48.066;14.124;2023-12-07T05:52:57;96991.25;;;1.05;78.78
49044;BME280;34860;48.066;14.124;2023-12-07T05:55:46;96995.56;;;1.06;78.83
49044;BME280;34860;48.066;14.124;2023-12-07T05:58:34;96997.50;;;1.06;78.89
49044;BME280;34860;48.066;14.124;2023-12-07T06:01:24;96995.19;;;1.08;78.92
49044;BME280;34860;48.066;14.124;2023-12-07T06:04:12;97002.97;;;1.06;78.80
49044;BME280;34860;48.066;14.124;2023-12-07T06:07:02;96999.09;;;1.07;78.83
49044;BME280;34860;48.066;14.124;2023-12-07T06:09:50;97000.25;;;1.06;78.87
49044;BME280;34860;48.066;14.124;2023-12-07T06:12:38;97004.19;;;1.08;78.79
49044;BME280;34860;48.066;14.124;2023-12-07T06:15:26;97006.91;;;1.08;78.68
49044;BME280;34860;48.066;14.124;2023-12-07T06:18:14;97010.88;;;1.11;78.76
49044;BME280;34860;48.066;14.124;2023-12-07T06:21:04;97011.28;;;1.13;78.58
49044;BME280;34860;48.066;14.124;2023-12-07T06:23:54;97019.16;;;1.15;78.58
49044;BME280;34860;48.066;14.124;2023-12-07T06:26:42;97014.47;;;1.15;78.56
49044;BME280;34860;48.066;14.124;2023-12-07T06:29:31;97016.41;;;1.15;78.50
49044;BME280;34860;48.066;14.124;2023-12-07T06:32:19;97022.69;;;1.15;78.50
49044;BME280;34860;48.066;14.124;2023-12-07T06:38:38;97014.41;;;1.12;78.62
49044;BME280;34860;48.066;14.124;2023-12-07T06:41:27;97019.09;;;1.11;78.57
49044;BME280;34860;48.066;14.124;2023-12-07T06:44:15;97024.63;;;1.15;78.70
49044;BME280;34860;48.066;14.124;2023-12-07T06:47:04;97023.41;;;1.12;78.66
49044;BME280;34860;48.066;14.124;2023-12-07T06:49:53;97028.91;;;1.12;78.71
49044;BME280;34860;48.066;14.124;2023-12-07T06:52:42;97023.41;;;1.12;78.79
49044;BME280;34860;48.066;14.124;2023-12-07T06:55:32;97034.38;;;1.12;78.63
49044;BME280;34860;48.066;14.124;2023-12-07T06:58:24;97041.03;;;1.15;78.63
49044;BME280;34860;48.066;14.124;2023-12-07T07:01:13;97043.38;;;1.13;78.71
49044;BME280;34860;48.066;14.124;2023-12-07T07:04:04;97050.78;;;1.12;78.76
49044;BME280;34860;48.066;14.124;2023-12-07T07:06:52;97049.19;;;1.11;78.93
49044;BME280;34860;48.066;14.124;2023-12-07T07:09:41;97049.94;;;1.08;78.92
49044;BME280;34860;48.066;14.124;2023-12-07T07:12:30;97053.84;;;1.07;78.98
49044;BME280;34860;48.066;14.124;2023-12-07T07:15:20;97047.19;;;1.08;78.99
49044;BME280;34860;48.066;14.124;2023-12-07T07:18:12;97053.44;;;1.08;79.00
49044;BME280;34860;48.066;14.124;2023-12-07T07:21:01;97057.00;;;1.09;78.90
49044;BME280;34860;48.066;14.124;2023-12-07T07:23:54;97060.56;;;1.13;78.78
49044;BME280;34860;48.066;14.124;2023-12-07T07:26:44;97057.53;;;1.18;78.70
49044;BME280;34860;48.066;14.124;2023-12-07T07:29:32;97052.50;;;1.20;78.67
49044;BME280;34860;48.066;14.124;2023-12-07T07:32:21;97054.09;;;1.21;78.57
49044;BME280;34860;48.066;14.124;2023-12-07T07:35:10;97055.22;;;1.20;78.55
49044;BME280;34860;48.066;14.124;2023-12-07T07:37:59;97055.66;;;1.22;78.72
49044;BME280;34860;48.066;14.124;2023-12-07T07:40:47;97061.63;;;1.28;78.60
49044;BME280;34860;48.066;14.124;2023-12-07T07:43:35;97050.22;;;1.26;78.82
49044;BME280;34860;48.066;14.124;2023-12-07T07:46:24;97040.88;;;1.27;78.56
49044;BME280;34860;48.066;14.124;2023-12-07T07:49:14;97034.59;;;1.26;78.58
49044;BME280;34860;48.066;14.124;2023-12-07T07:52:02;97042.44;;;1.28;78.50
49044;BME280;34860;48.066;14.124;2023-12-07T07:54:51;97045.59;;;1.30;78.58
49044;BME280;34860;48.066;14.124;2023-12-07T07:57:40;97042.50;;;1.32;78.58
49044;BME280;34860;48.066;14.124;2023-12-07T08:00:29;97037.88;;;1.36;78.67
49044;BME280;34860;48.066;14.124;2023-12-07T08:03:19;97041.78;;;1.35;78.44
49044;BME280;34860;48.066;14.124;2023-12-07T08:06:09;97050.41;;;1.37;78.55
49044;BME280;34860;48.066;14.124;2023-12-07T08:08:57;97044.59;;;1.42;78.48
49044;BME280;34860;48.066;14.124;2023-12-07T08:11:45;97038.72;;;1.40;78.30
49044;BME280;34860;48.066;14.124;2023-12-07T08:14:37;97045.78;;;1.41;78.39
49044;BME280;34860;48.066;14.124;2023-12-07T08:17:26;97037.19;;;1.42;78.46
49044;BME280;34860;48.066;14.124;2023-12-07T08:20:14;97042.31;;;1.44;78.40
49044;BME280;34860;48.066;14.124;2023-12-07T08:23:07;97040.34;;;1.44;78.47
49044;BME280;34860;48.066;14.124;2023-12-07T08:25:56;97033.28;;;1.43;78.59
49044;BME280;34860;48.066;14.124;2023-12-07T08:28:46;97046.69;;;1.49;78.58
49044;BME280;34860;48.066;14.124;2023-12-07T08:31:34;97037.38;;;1.53;78.51
49044;BME280;34860;48.066;14.124;2023-12-07T08:34:25;97048.47;;;1.64;78.25
49044;BME280;34860;48.066;14.124;2023-12-07T08:37:17;97051.34;;;1.71;78.13
49044;BME280;34860;48.066;14.124;2023-12-07T08:40:10;97041.53;;;1.70;78.14
49044;BME280;34860;48.066;14.124;2023-12-07T08:43:04;97046.69;;;1.75;78.27
49044;BME280;34860;48.066;14.124;2023-12-07T08:45:53;97048.31;;;1.80;78.20
49044;BME280;34860;48.066;14.124;2023-12-07T08:48:44;97050.28;;;1.79;78.09
49044;BME280;34860;48.066;14.124;2023-12-07T08:51:32;97053.78;;;1.80;78.37
49044;BME280;34860;48.066;14.124;2023-12-07T08:54:20;97053.50;;;1.85;78.14
49044;BME280;34860;48.066;14.124;2023-12-07T08:57:09;97045.72;;;1.91;78.22
49044;BME280;34860;48.066;14.124;2023-12-07T08:59:57;97056.38;;;1.96;78.21
49044;BME280;34860;48.066;14.124;2023-12-07T09:02:47;97054.44;;;1.96;77.91
49044;BME280;34860;48.066;14.124;2023-12-07T09:05:35;97053.63;;;1.96;78.10
49044;BME280;34860;48.066;14.124;2023-12-07T09:08:24;97050.19;;;2.03;78.16
49044;BME280;34860;48.066;14.124;2023-12-07T09:11:12;97050.66;;;2.08;78.03
49044;BME280;34860;48.066;14.124;2023-12-07T09:14:02;97049.97;;;2.15;77.93
49044;BME280;34860;48.066;14.124;2023-12-07T09:16:50;97059.38;;;2.14;77.90
49044;BME280;34860;48.066;14.124;2023-12-07T09:19:38;97053.06;;;2.13;78.15
49044;BME280;34860;48.066;14.124;2023-12-07T09:22:27;97051.59;;;2.20;78.10
49044;BME280;34860;48.066;14.124;2023-12-07T09:25:17;97054.38;;;2.23;77.97
49044;BME280;34860;48.066;14.124;2023-12-07T09:28:06;97046.94;;;2.24;77.97
49044;BME280;34860;48.066;14.124;2023-12-07T09:30:56;97049.31;;;2.25;78.01
49044;BME280;34860;48.066;14.124;2023-12-07T09:33:44;97053.22;;;2.24;78.01
49044;BME280;34860;48.066;14.124;2023-12-07T09:36:34;97054.88;;;2.32;77.90
49044;BME280;34860;48.066;14.124;2023-12-07T09:39:23;97059.63;;;2.35;77.92
49044;BME280;34860;48.066;14.124;2023-12-07T09:42:11;97055.75;;;2.40;77.70
49044;BME280;34860;48.066;14.124;2023-12-07T09:45:01;97055.44;;;2.45;77.76
49044;BME280;34860;48.066;14.124;2023-12-07T09:47:52;97055.03;;;2.43;77.75
49044;BME280;34860;48.066;14.124;2023-12-07T09:50:40;97041.34;;;2.47;77.81
49044;BME280;34860;48.066;14.124;2023-12-07T09:53:39;97041.00;;;2.52;77.50
49044;BME280;34860;48.066;14.124;2023-12-07T09:56:30;97040.63;;;2.53;77.45
49044;BME280;34860;48.066;14.124;2023-12-07T09:59:18;97047.69;;;2.54;77.51
49044;BME280;34860;48.066;14.124;2023-12-07T10:02:08;97038.22;;;2.48;77.69
49044;BME280;34860;48.066;14.124;2023-12-07T10:05:08;97036.66;;;2.47;77.87
49044;BME280;34860;48.066;14.124;2023-12-07T10:07:57;97038.56;;;2.43;77.79
49044;BME280;34860;48.066;14.124;2023-12-07T10:11:01;97035.84;;;2.47;77.69
49044;BME280;34860;48.066;14.124;2023-12-07T10:13:49;97038.72;;;2.58;77.45
49044;BME280;34860;48.066;14.124;2023-12-07T10:16:38;97033.25;;;2.58;77.51
49044;BME280;34860;48.066;14.124;2023-12-07T10:19:27;97036.34;;;2.56;77.51
49044;BME280;34860;48.066;14.124;2023-12-07T10:22:18;97031.25;;;2.54;77.38
49044;BME280;34860;48.066;14.124;2023-12-07T10:25:09;97028.50;;;2.54;77.70
49044;BME280;34860;48.066;14.124;2023-12-07T10:28:00;97037.13;;;2.57;77.56
49044;BME280;34860;48.066;14.124;2023-12-07T10:30:53;97037.13;;;2.57;77.43
49044;BME280;34860;48.066;14.124;2023-12-07T10:33:41;97033.25;;;2.58;77.53
49044;BME280;34860;48.066;14.124;2023-12-07T10:36:34;97025.88;;;2.65;77.25
49044;BME280;34860;48.066;14.124;2023-12-07T10:39:24;97021.53;;;2.64;77.35
49044;BME280;34860;48.066;14.124;2023-12-07T10:42:16;97022.75;;;2.67;77.45
49044;BME280;34860;48.066;14.124;2023-12-07T10:45:08;97022.00;;;2.70;77.51
49044;BME280;34860;48.066;14.124;2023-12-07T10:48:02;97020.81;;;2.71;77.53
49044;BME280;34860;48.066;14.124;2023-12-07T10:50:55;97026.31;;;2.71;77.58
49044;BME280;34860;48.066;14.124;2023-12-07T10:53:48;97017.66;;;2.65;77.66
49044;BME280;34860;48.066;14.124;2023-12-07T10:56:43;97022.00;;;2.70;77.61
49044;BME280;34860;48.066;14.124;2023-12-07T10:59:32;97018.09;;;2.71;77.65
49044;BME280;34860;48.066;14.124;2023-12-07T11:02:23;97017.38;;;2.78;77.63
49044;BME280;34860;48.066;14.124;2023-12-07T11:05:13;97020.56;;;2.83;77.55
49044;BME280;34860;48.066;14.124;2023-12-07T11:08:06;97014.28;;;2.83;77.59
49044;BME280;34860;48.066;14.124;2023-12-07T11:11:01;97014.28;;;2.83;77.61
49044;BME280;34860;48.066;14.124;2023-12-07T11:13:57;96999.00;;;2.85;77.58
49044;BME280;34860;48.066;14.124;2023-12-07T11:16:52;97009.69;;;2.94;77.47
49044;BME280;34860;48.066;14.124;2023-12-07T11:19:43;97006.53;;;2.92;77.36
49044;BME280;34860;48.066;14.124;2023-12-07T11:22:32;97003.75;;;2.88;77.52
49044;BME280;34860;48.066;14.124;2023-12-07T11:25:20;97000.97;;;2.85;77.54
49044;BME280;34860;48.066;14.124;2023-12-07T11:28:12;97002.97;;;2.88;77.60
49044;BME280;34860;48.066;14.124;2023-12-07T11:31:02;96998.97;;;2.82;77.41
49044;BME280;34860;48.066;14.124;2023-12-07T11:33:52;97003.22;;;2.72;77.61
49044;BME280;34860;48.066;14.124;2023-12-07T11:36:43;97000.00;;;2.66;77.57
49044;BME280;34860;48.066;14.124;2023-12-07T11:39:34;96996.41;;;2.59;77.82
49044;BME280;34860;48.066;14.124;2023-12-07T11:42:23;96994.00;;;2.53;77.82
49044;BME280;34860;48.066;14.124;2023-12-07T11:45:15;96988.13;;;2.55;77.71
49044;BME280;34860;48.066;14.124;2023-12-07T11:48:12;96990.56;;;2.60;77.38
49044;BME280;34860;48.066;14.124;2023-12-07T11:51:03;96986.75;;;2.72;77.21
49044;BME280;34860;48.066;14.124;2023-12-07T11:53:53;96984.78;;;2.72;76.96
49044;BME280;34860;48.066;14.124;2023-12-07T11:56:41;96993.00;;;2.72;76.92
49044;BME280;34860;48.066;14.124;2023-12-07T11:59:30;96989.16;;;2.81;76.93
49044;BME280;34860;48.066;14.124;2023-12-07T12:02:19;96997.63;;;3.06;76.38
49044;BME280;34860;48.066;14.124;2023-12-07T12:05:10;96994.25;;;3.23;75.88
49044;BME280;34860;48.066;14.124;2023-12-07T12:08:01;96988.38;;;3.28;76.19
49044;BME280;34860;48.066;14.124;2023-12-07T12:10:50;96983.31;;;3.31;75.92
49044;BME280;34860;48.066;14.124;2023-12-07T12:13:40;96980.22;;;3.39;75.85
49044;BME280;34860;48.066;14.124;2023-12-07T12:16:29;96981.44;;;3.42;76.02
49044;BME280;34860;48.066;14.124;2023-12-07T12:19:18;96976.25;;;3.33;76.03
49044;BME280;34860;48.066;14.124;2023-12-07T12:22:10;96977.03;;;3.30;76.12
49044;BME280;34860;48.066;14.124;2023-12-07T12:25:01;96974.97;;;3.16;76.46
49044;BME280;34860;48.066;14.124;2023-12-07T12:27:51;96968.19;;;3.03;76.71
49044;BME280;34860;48.066;14.124;2023-12-07T12:30:40;96979.16;;;3.03;76.74
49044;BME280;34860;48.066;14.124;2023-12-07T12:33:36;96980.28;;;2.95;76.94
49044;BME280;34860;48.066;14.124;2023-12-07T12:36:25;96972.38;;;2.86;77.07
49044;BME280;34860;48.066;14.124;2023-12-07T12:39:26;96975.44;;;2.81;77.30
49044;BME280;34860;48.066;14.124;2023-12-07T12:42:18;96975.50;;;2.84;77.27
49044;BME280;34860;48.066;14.124;2023-12-07T12:45:08;96970.00;;;3.36;76.35
49044;BME280;34860;48.066;14.124;2023-12-07T12:48:00;96974.06;;;3.53;75.96
49044;BME280;34860;48.066;14.124;2023-12-07T12:50:49;96970.75;;;3.30;76.29
49044;BME280;34860;48.066;14.124;2023-12-07T12:53:41;96974.72;;;3.32;76.23
49044;BME280;34860;48.066;14.124;2023-12-07T12:56:31;96972.91;;;3.06;76.76
49044;BME280;34860;48.066;14.124;2023-12-07T12:59:19;96971.75;;;3.03;77.00
49044;BME280;34860;48.066;14.124;2023-12-07T13:02:09;96980.00;;;4.50;75.49
49044;BME280;34860;48.066;14.124;2023-12-07T13:04:59;96974.53;;;5.66;71.72
49044;BME280;34860;48.066;14.124;2023-12-07T13:07:47;96977.53;;;6.29;69.64
49044;BME280;34860;48.066;14.124;2023-12-07T13:10:41;96970.25;;;5.54;70.93
49044;BME280;34860;48.066;14.124;2023-12-07T13:13:30;96976.16;;;5.23;72.50
49044;BME280;34860;48.066;14.124;2023-12-07T13:16:18;96974.19;;;5.06;72.71
49044;BME280;34860;48.066;14.124;2023-12-07T13:19:08;96972.97;;;4.96;73.31
49044;BME280;34860;48.066;14.124;2023-12-07T13:21:57;96973.72;;;4.57;74.09
49044;BME280;34860;48.066;14.124;2023-12-07T13:24:48;96965.28;;;3.96;75.55
49044;BME280;34860;48.066;14.124;2023-12-07T13:27:36;96962.22;;;3.45;77.15
49044;BME280;34860;48.066;14.124;2023-12-07T13:30:26;96961.94;;;3.06;78.27
49044;BME280;34860;48.066;14.124;2023-12-07T13:33:16;96964.94;;;2.90;78.57
49044;BME280;34860;48.066;14.124;2023-12-07T13:36:07;96957.03;;;2.81;78.57
49044;BME280;34860;48.066;14.124;2023-12-07T13:38:58;96958.53;;;2.71;78.38
49044;BME280;34860;48.066;14.124;2023-12-07T13:41:49;96958.84;;;2.66;78.34
49044;BME280;34860;48.066;14.124;2023-12-07T13:44:38;96961.97;;;2.65;78.22
49044;BME280;34860;48.066;14.124;2023-12-07T13:47:29;96956.16;;;2.70;77.71
49044;BME280;34860;48.066;14.124;2023-12-07T13:50:20;96953.31;;;2.63;77.48
49044;BME280;34860;48.066;14.124;2023-12-07T13:53:09;96959.91;;;2.54;77.64
49044;BME280;34860;48.066;14.124;2023-12-07T13:56:00;96958.28;;;2.50;77.52
49044;BME280;34860;48.066;14.124;2023-12-07T13:58:50;96962.97;;;2.46;77.58
49044;BME280;34860;48.066;14.124;2023-12-07T14:01:39;96961.28;;;2.38;77.72
49044;BME280;34860;48.066;14.124;2023-12-07T14:04:30;96954.97;;;2.30;77.90
49044;BME280;34860;48.066;14.124;2023-12-07T14:07:21;96969.31;;;2.16;78.06
49044;BME280;34860;48.066;14.124;2023-12-07T14:10:19;96965.59;;;2.01;78.22
49044;BME280;34860;48.066;14.124;2023-12-07T14:13:07;96968.25;;;1.94;78.55
49044;BME280;34860;48.066;14.124;2023-12-07T14:15:59;96963.06;;;1.85;78.51
49044;BME280;34860;48.066;14.124;2023-12-07T14:18:48;96962.19;;;1.77;78.57
49044;BME280;34860;48.066;14.124;2023-12-07T14:21:46;96957.06;;;1.76;78.41
49044;BME280;34860;48.066;14.124;2023-12-07T14:24:37;96965.91;;;1.66;78.70
49044;BME280;34860;48.066;14.124;2023-12-07T14:27:25;96974.84;;;1.59;78.89
49044;BME280;34860;48.066;14.124;2023-12-07T14:30:14;96964.78;;;1.40;78.95
49044;BME280;34860;48.066;14.124;2023-12-07T14:33:04;96970.00;;;1.22;79.40
49044;BME280;34860;48.066;14.124;2023-12-07T14:35:53;96968.56;;;1.05;79.62
49044;BME280;34860;48.066;14.124;2023-12-07T14:38:42;96971.91;;;0.95;79.86
49044;BME280;34860;48.066;14.124;2023-12-07T14:41:33;96967.94;;;0.92;79.69
49044;BME280;34860;48.066;14.124;2023-12-07T14:44:22;96967.19;;;0.92;79.63
49044;BME280;34860;48.066;14.124;2023-12-07T14:47:14;96967.59;;;0.94;79.58
49044;BME280;34860;48.066;14.124;2023-12-07T14:50:02;96965.22;;;0.92;79.47
49044;BME280;34860;48.066;14.124;2023-12-07T14:52:52;96958.09;;;0.87;79.25
49044;BME280;34860;48.066;14.124;2023-12-07T14:55:42;96960.84;;;0.87;79.28
49044;BME280;34860;48.066;14.124;2023-12-07T14:58:30;96971.41;;;0.89;79.05
49044;BME280;34860;48.066;14.124;2023-12-07T15:01:19;96977.34;;;0.91;78.72
49044;BME280;34860;48.066;14.124;2023-12-07T15:04:09;96969.63;;;0.74;78.86